Details From LIPE - Bologna
To LEZG - Zaragoza Ab
Flight Number -
Tags Generated
Created
Modified
Stats Distance 567 nm / 1,050 km
Max Altitude 0 ft / 0 m
Waypoints 4
Social Downloads 0
Likes 0
Share VATSIM

Download

Looking for another format? Having issues loading an existing format? Contact us
Advertisement - Login to hide

Notes

Generated

Route

LIPE MRM R2506 LEZG

ID Type Via Altitude Latitude Longitude Leg Dist Tot Dist Heading (true) Name
O LIPE APT - 0 ft / 0 m 44.54112˚ 11.27290˚ - 0 nm - -
MRM VOR - 0 ft / 0 m 43.37733˚ 5.32644˚ 266 nm 266 nm 257° / 253° MARSEILLE PROVENCE VOR-DME
R2506 FIX - 0 ft / 0 m 41.65539˚ -1.00832˚ 298 nm 565 nm 252° / 248° -
O LEZG APT - 0 ft / 0 m 41.66906˚ -1.03983˚ 1 nm 566 nm 300° / 300° Zaragoza AB

Altitude Profile

Advertisement - Login to hide

Weather


0- 5 10 15 20 25 30 35+ Temperature / ° C

Clouds and Precipitation
Forecast for 2017-12-19 00:00 UTC. Updated 2 hours ago

Ground ~20,000 ft ~40,000 ft Winds

LIPE

Details ICAO LIPE (BLQ)
Name BOLOGNA
Region Italy
Timezone Europe/Rome (UTC+1.0)
Stats Elevation 123 ft / 37 m (AMSL)
Location 44.535446° 11.288662°
Runways 1
Magnetic Variation 2.919° E

METAR

LIPE 182220Z 24004KT CAVOK M02/M04 Q1027

Decode

TAF

TAF LIPE 181700Z 1818/1918 VRB06KT CAVOK

Decode

Departure Runways

ID Width Length Bearing (true) Bearing (mag) Surface Threshold Offset Overrun Length
12 148 ft / 45 m 9,185 ft / 2,800 m 116.78° 113.86° Asphalt 1,007 ft / 307 m 0 ft / 0 m
30 148 ft / 45 m 9,185 ft / 2,800 m 296.81° 293.89° Asphalt 1,188 ft / 362 m 200 ft / 61 m

LEZG

Details ICAO LEZG (ZAZ)
Name Zaragoza AB
Region Spain
Timezone Europe/Madrid (UTC+1.0)
Stats Elevation 862 ft / 263 m (AMSL)
Location 41.667030° -1.043559°
Runways 2
Magnetic Variation 0.010° W

METAR

LEZG 182230Z 29020KT 9999 FEW045 12/07 Q1023

Decode

TAF

TAF LEZG 181700Z 1818/1918 30015KT 9999 SCT040 TX14/1913Z TN03/1906Z TEMPO 1818/1904 30020G30KT

Decode

Destination Runways

ID Width Length Bearing (true) Bearing (mag) Surface Threshold Offset Overrun Length
12L 148 ft / 45 m 9,934 ft / 3,028 m 120.12° 120.13° Asphalt 0 ft / 0 m 984 ft / 300 m
12R 148 ft / 45 m 12,181 ft / 3,713 m 120.10° 120.11° Asphalt 0 ft / 0 m 984 ft / 300 m
30L 148 ft / 45 m 12,181 ft / 3,713 m 300.12° 300.13° Asphalt 0 ft / 0 m 984 ft / 300 m
30R 148 ft / 45 m 9,934 ft / 3,028 m 300.14° 300.15° Asphalt 0 ft / 0 m 607 ft / 185 m

Approach Navaids

Runway Type Ident Frequency Range Bearing (true) Bearing (mag) Slope Elevation
30R Localiser IZZA 109.50 MHz 18 nm / 33 km 300.12° 300.12° - 862 ft / 263 m (AMSL)
30R Glidescope IZZA 109.50 MHz 10 nm / 19 km 300.13° 300.14° 2.50° 862 ft / 263 m (AMSL)